SAS21X OEJN-EKCH
Flight info
| Callsign | SAS21X |
|---|---|
| Flight time | 5h 47m |
| Altitude | 40000 |
| Route | MIGDA L677 GESON Q777 RASDA DCT USEBE M855 TOMBI UA16 AYT UQ23 OSVEL UL619 MAKOL DCT BOKDO DCT KENIN DCT LENOV DCT PEPOX DCT KOLOB/N0491F280 L617 ROE M743 TIDVU |
| Aircraft | A359/H-SDE2E3GHIJ3J4J5LM1ORWXY/LB1D1 |
Departure
| Time | 2026-05-07 16:13 |
|---|---|
| Airport | King Abdulaziz International Airport (OEJN) |
Arrival
| Time | 2026-05-07 22:01 |
|---|---|
| Airport | Copenhagen Kastrup Airport (EKCH) |
| Time | Latitude | Longitude | Altitude | Speed | Heading |
|---|---|---|---|---|---|
| 2026-05-07 15:58 | 21.66821 | 39.17185 | 51 ft | 0 kts | 249° |
| 2026-05-07 16:05 | 21.66826 | 39.17199 | 54 ft | 3 kts | 249° |
| 2026-05-07 16:05 | 21.66833 | 39.17217 | 152 ft | 3 kts | 249° |
| 2026-05-07 16:05 | 21.66841 | 39.17236 | 28 ft | 3 kts | 232° |
| 2026-05-07 16:06 | 21.66854 | 39.17250 | 37 ft | 3 kts | 212° |
| 2026-05-07 16:06 | 21.66871 | 39.17259 | 48 ft | 3 kts | 192° |
| 2026-05-07 16:06 | 21.66889 | 39.17261 | 48 ft | 3 kts | 172° |
| 2026-05-07 16:06 | 21.66897 | 39.17259 | 48 ft | 0 kts | 165° |
| 2026-05-07 16:08 | 21.66897 | 39.17260 | 48 ft | 1 kts | 165° |
| 2026-05-07 16:08 | 21.66884 | 39.17263 | 50 ft | 3 kts | 165° |
| 2026-05-07 16:08 | 21.66853 | 39.17273 | 49 ft | 6 kts | 161° |
| 2026-05-07 16:09 | 21.66807 | 39.17292 | 50 ft | 8 kts | 159° |
| 2026-05-07 16:09 | 21.66744 | 39.17318 | 48 ft | 11 kts | 159° |
| 2026-05-07 16:09 | 21.66665 | 39.17349 | 50 ft | 13 kts | 160° |
| 2026-05-07 16:09 | 21.66575 | 39.17387 | 51 ft | 15 kts | 154° |
| 2026-05-07 16:10 | 21.66499 | 39.17461 | 52 ft | 15 kts | 125° |
| 2026-05-07 16:10 | 21.66488 | 39.17558 | 52 ft | 13 kts | 62° |
| 2026-05-07 16:10 | 21.66529 | 39.17646 | 54 ft | 13 kts | 66° |
| 2026-05-07 16:10 | 21.66565 | 39.17740 | 61 ft | 14 kts | 68° |
| 2026-05-07 16:11 | 21.66598 | 39.17835 | 57 ft | 10 kts | 70° |
| 2026-05-07 16:11 | 21.66624 | 39.17910 | 59 ft | 11 kts | 70° |
| 2026-05-07 16:11 | 21.66641 | 39.17961 | 55 ft | 11 kts | 69° |
| 2026-05-07 16:11 | 21.66665 | 39.18018 | 61 ft | 3 kts | 51° |
| 2026-05-07 16:12 | 21.66687 | 39.18028 | 62 ft | 3 kts | 6° |
| 2026-05-07 16:12 | 21.66706 | 39.18025 | 62 ft | 5 kts | 346° |
| 2026-05-07 16:12 | 21.66743 | 39.18010 | 56 ft | 7 kts | 339° |
| 2026-05-07 16:12 | 21.66823 | 39.17978 | 60 ft | 28 kts | 340° |
| 2026-05-07 16:13 | 21.67222 | 39.17822 | 52 ft | 93 kts | 340° |
| 2026-05-07 16:13 | 21.68011 | 39.17513 | 50 ft | 147 kts | 340° |
| 2026-05-07 16:13 | 21.69091 | 39.17084 | 374 ft | 170 kts | 340° |
| 2026-05-07 16:13 | 21.70181 | 39.16631 | 1210 ft | 169 kts | 338° |
| 2026-05-07 16:14 | 21.71261 | 39.16181 | 1936 ft | 168 kts | 339° |
| 2026-05-07 16:14 | 21.72399 | 39.15715 | 2164 ft | 183 kts | 341° |
| 2026-05-07 16:14 | 21.73659 | 39.15238 | 2338 ft | 199 kts | 342° |
| 2026-05-07 16:14 | 21.75023 | 39.14783 | 2604 ft | 211 kts | 347° |
| 2026-05-07 16:15 | 21.76542 | 39.14858 | 2714 ft | 232 kts | 20° |
| 2026-05-07 16:15 | 21.77943 | 39.15846 | 2934 ft | 250 kts | 39° |
| 2026-05-07 16:15 | 21.79289 | 39.17076 | 3234 ft | 264 kts | 38° |
| 2026-05-07 16:15 | 21.80921 | 39.18031 | 3647 ft | 271 kts | 18° |
| 2026-05-07 16:16 | 21.82801 | 39.18201 | 4119 ft | 276 kts | 349° |
| 2026-05-07 16:16 | 21.84612 | 39.17486 | 4617 ft | 280 kts | 334° |
| 2026-05-07 16:16 | 21.86347 | 39.16507 | 5122 ft | 281 kts | 331° |
| 2026-05-07 16:16 | 21.88073 | 39.15496 | 5700 ft | 281 kts | 331° |
| 2026-05-07 16:17 | 21.89792 | 39.14484 | 6266 ft | 282 kts | 331° |
| 2026-05-07 16:17 | 21.91507 | 39.13478 | 6779 ft | 284 kts | 330° |
| 2026-05-07 16:17 | 21.93255 | 39.12459 | 7280 ft | 286 kts | 330° |
| 2026-05-07 16:17 | 21.95016 | 39.11438 | 7779 ft | 288 kts | 330° |
| 2026-05-07 16:18 | 21.96772 | 39.10429 | 8317 ft | 290 kts | 330° |
| 2026-05-07 16:18 | 21.98564 | 39.09403 | 8842 ft | 291 kts | 329° |
| 2026-05-07 16:18 | 22.00364 | 39.08369 | 9358 ft | 295 kts | 329° |
| 2026-05-07 16:18 | 22.02183 | 39.07319 | 9855 ft | 297 kts | 329° |
| 2026-05-07 16:19 | 22.04035 | 39.06247 | 10155 ft | 307 kts | 329° |
| 2026-05-07 16:19 | 22.05956 | 39.05130 | 10374 ft | 320 kts | 328° |
| 2026-05-07 16:19 | 22.07959 | 39.03967 | 10592 ft | 332 kts | 329° |
| 2026-05-07 16:19 | 22.10044 | 39.02768 | 10781 ft | 344 kts | 329° |
| 2026-05-07 16:20 | 22.12166 | 39.01546 | 10963 ft | 355 kts | 329° |
| 2026-05-07 16:20 | 22.14387 | 39.00270 | 11137 ft | 365 kts | 329° |
| 2026-05-07 16:20 | 22.16662 | 38.98960 | 11326 ft | 374 kts | 329° |
| 2026-05-07 16:20 | 22.18983 | 38.97622 | 11597 ft | 380 kts | 329° |
| 2026-05-07 16:21 | 22.21302 | 38.96288 | 11941 ft | 383 kts | 329° |
| 2026-05-07 16:21 | 22.23670 | 38.94922 | 12298 ft | 386 kts | 329° |
| 2026-05-07 16:21 | 22.26046 | 38.93551 | 12666 ft | 388 kts | 328° |
| 2026-05-07 16:21 | 22.28402 | 38.92191 | 13042 ft | 389 kts | 328° |
| 2026-05-07 16:22 | 22.30807 | 38.90802 | 13412 ft | 392 kts | 328° |
| 2026-05-07 16:22 | 22.33222 | 38.89405 | 13763 ft | 394 kts | 328° |
| 2026-05-07 16:22 | 22.35656 | 38.87997 | 14080 ft | 396 kts | 328° |
| 2026-05-07 16:22 | 22.38088 | 38.86590 | 14416 ft | 398 kts | 328° |
| 2026-05-07 16:23 | 22.40534 | 38.85175 | 14744 ft | 400 kts | 328° |
| 2026-05-07 16:23 | 22.42964 | 38.83767 | 15074 ft | 402 kts | 328° |
| 2026-05-07 16:23 | 22.45446 | 38.82330 | 15409 ft | 404 kts | 328° |
| 2026-05-07 16:23 | 22.47943 | 38.80882 | 15758 ft | 406 kts | 328° |
| 2026-05-07 16:24 | 22.50439 | 38.79435 | 16099 ft | 408 kts | 328° |
| 2026-05-07 16:24 | 22.52948 | 38.77980 | 16447 ft | 410 kts | 328° |
| 2026-05-07 16:24 | 22.55469 | 38.76517 | 16785 ft | 412 kts | 328° |
| 2026-05-07 16:24 | 22.58007 | 38.75043 | 17126 ft | 414 kts | 328° |
| 2026-05-07 16:25 | 22.60529 | 38.73579 | 17468 ft | 416 kts | 328° |
| 2026-05-07 16:25 | 22.63091 | 38.72098 | 17791 ft | 419 kts | 329° |
| 2026-05-07 16:25 | 22.65737 | 38.70721 | 18125 ft | 422 kts | 332° |
| 2026-05-07 16:25 | 22.68449 | 38.69445 | 18420 ft | 425 kts | 334° |
| 2026-05-07 16:26 | 22.71187 | 38.68233 | 18727 ft | 426 kts | 334° |
| 2026-05-07 16:26 | 22.73914 | 38.67055 | 19022 ft | 428 kts | 334° |
| 2026-05-07 16:26 | 22.76688 | 38.65863 | 19322 ft | 429 kts | 334° |
| 2026-05-07 16:26 | 22.79471 | 38.64657 | 19616 ft | 430 kts | 334° |
| 2026-05-07 16:27 | 22.82255 | 38.63440 | 19902 ft | 431 kts | 334° |
| 2026-05-07 16:27 | 22.85049 | 38.62208 | 20196 ft | 433 kts | 334° |
| 2026-05-07 16:27 | 22.87847 | 38.60967 | 20470 ft | 434 kts | 334° |
| 2026-05-07 16:27 | 22.90613 | 38.59737 | 20746 ft | 436 kts | 333° |
| 2026-05-07 16:28 | 22.93431 | 38.58482 | 21030 ft | 437 kts | 333° |
| 2026-05-07 16:28 | 22.96260 | 38.57221 | 21307 ft | 438 kts | 333° |
| 2026-05-07 16:28 | 22.99055 | 38.55976 | 21578 ft | 440 kts | 333° |
| 2026-05-07 16:28 | 23.01902 | 38.54707 | 21855 ft | 441 kts | 333° |
| 2026-05-07 16:29 | 23.04746 | 38.53440 | 22125 ft | 442 kts | 333° |
| 2026-05-07 16:29 | 23.07609 | 38.52163 | 22375 ft | 444 kts | 333° |
| 2026-05-07 16:29 | 23.10441 | 38.50900 | 22625 ft | 445 kts | 333° |
| 2026-05-07 16:29 | 23.13312 | 38.49619 | 22882 ft | 447 kts | 333° |
| 2026-05-07 16:30 | 23.16205 | 38.48326 | 23142 ft | 448 kts | 333° |
| 2026-05-07 16:30 | 23.19098 | 38.47035 | 23401 ft | 449 kts | 333° |
| 2026-05-07 16:30 | 23.21997 | 38.45739 | 23602 ft | 451 kts | 333° |
| 2026-05-07 16:30 | 23.24918 | 38.44433 | 23807 ft | 453 kts | 333° |
| 2026-05-07 16:31 | 23.27801 | 38.43144 | 24017 ft | 454 kts | 333° |
| 2026-05-07 16:31 | 23.30726 | 38.41835 | 24224 ft | 455 kts | 333° |
| 2026-05-07 16:31 | 23.33662 | 38.40521 | 24418 ft | 457 kts | 333° |
| 2026-05-07 16:31 | 23.36620 | 38.39196 | 24616 ft | 458 kts | 333° |
| 2026-05-07 16:32 | 23.39576 | 38.37871 | 24834 ft | 460 kts | 333° |
| 2026-05-07 16:32 | 23.42506 | 38.36557 | 25013 ft | 461 kts | 332° |
| 2026-05-07 16:32 | 23.45473 | 38.35226 | 25216 ft | 462 kts | 332° |
| 2026-05-07 16:32 | 23.48461 | 38.33886 | 25413 ft | 464 kts | 332° |
| 2026-05-07 16:33 | 23.51460 | 38.32539 | 25606 ft | 465 kts | 332° |
| 2026-05-07 16:33 | 23.54462 | 38.31191 | 25827 ft | 466 kts | 332° |
| 2026-05-07 16:33 | 23.57436 | 38.29854 | 26005 ft | 468 kts | 332° |
| 2026-05-07 16:33 | 23.60451 | 38.28498 | 26216 ft | 469 kts | 332° |
| 2026-05-07 16:34 | 23.63479 | 38.27136 | 26420 ft | 470 kts | 332° |
| 2026-05-07 16:34 | 23.66512 | 38.25771 | 26620 ft | 472 kts | 332° |
| 2026-05-07 16:34 | 23.69553 | 38.24401 | 26836 ft | 473 kts | 332° |
| 2026-05-07 16:34 | 23.72598 | 38.23028 | 27035 ft | 474 kts | 332° |
| 2026-05-07 16:35 | 23.75667 | 38.21644 | 27247 ft | 476 kts | 332° |
| 2026-05-07 16:35 | 23.78685 | 38.20282 | 27456 ft | 477 kts | 332° |
| 2026-05-07 16:35 | 23.81769 | 38.18890 | 27663 ft | 478 kts | 332° |
| 2026-05-07 16:35 | 23.84853 | 38.17497 | 27879 ft | 480 kts | 332° |
| 2026-05-07 16:36 | 23.87947 | 38.16099 | 28073 ft | 482 kts | 332° |
| 2026-05-07 16:36 | 23.91053 | 38.14695 | 28282 ft | 483 kts | 332° |
| 2026-05-07 16:36 | 23.94165 | 38.13287 | 28497 ft | 484 kts | 332° |
| 2026-05-07 16:36 | 23.97294 | 38.11870 | 28705 ft | 486 kts | 332° |
| 2026-05-07 16:37 | 24.00379 | 38.10473 | 28920 ft | 487 kts | 332° |
| 2026-05-07 16:37 | 24.03520 | 38.09050 | 29122 ft | 489 kts | 332° |
| 2026-05-07 16:37 | 24.06666 | 38.07624 | 29344 ft | 490 kts | 332° |
| 2026-05-07 16:37 | 24.09817 | 38.06195 | 29550 ft | 491 kts | 332° |
| 2026-05-07 16:38 | 24.12969 | 38.04738 | 29781 ft | 491 kts | 329° |
| 2026-05-07 16:38 | 24.15965 | 38.02982 | 29956 ft | 486 kts | 322° |
| 2026-05-07 16:38 | 24.18824 | 38.00990 | 30154 ft | 486 kts | 321° |
| 2026-05-07 16:38 | 24.21618 | 37.98951 | 30346 ft | 486 kts | 320° |
| 2026-05-07 16:39 | 24.24417 | 37.96855 | 30541 ft | 487 kts | 319° |
| 2026-05-07 16:39 | 24.27207 | 37.94743 | 30738 ft | 488 kts | 319° |
| 2026-05-07 16:39 | 24.29999 | 37.92625 | 30944 ft | 489 kts | 319° |
| 2026-05-07 16:39 | 24.32812 | 37.90495 | 31149 ft | 491 kts | 319° |
| 2026-05-07 16:40 | 24.35633 | 37.88364 | 31345 ft | 492 kts | 319° |
| 2026-05-07 16:40 | 24.38459 | 37.86234 | 31522 ft | 493 kts | 319° |
| 2026-05-07 16:40 | 24.41290 | 37.84104 | 31816 ft | 492 kts | 319° |
| 2026-05-07 16:40 | 24.44084 | 37.82005 | 32117 ft | 491 kts | 319° |
| 2026-05-07 16:41 | 24.46898 | 37.79889 | 32396 ft | 490 kts | 319° |
| 2026-05-07 16:41 | 24.49712 | 37.77771 | 32671 ft | 489 kts | 319° |
| 2026-05-07 16:41 | 24.52517 | 37.75659 | 32974 ft | 488 kts | 319° |
| 2026-05-07 16:41 | 24.55319 | 37.73547 | 33274 ft | 487 kts | 319° |
| 2026-05-07 16:42 | 24.58110 | 37.71442 | 33590 ft | 486 kts | 318° |
| 2026-05-07 16:42 | 24.60865 | 37.69362 | 33862 ft | 485 kts | 318° |
| 2026-05-07 16:42 | 24.63656 | 37.67254 | 34120 ft | 485 kts | 318° |
| 2026-05-07 16:42 | 24.66437 | 37.65152 | 34376 ft | 484 kts | 318° |
| 2026-05-07 16:43 | 24.69213 | 37.63053 | 34633 ft | 484 kts | 317° |
| 2026-05-07 16:43 | 24.71995 | 37.60947 | 34878 ft | 483 kts | 317° |
| 2026-05-07 16:43 | 24.74769 | 37.58847 | 35126 ft | 483 kts | 317° |
| 2026-05-07 16:43 | 24.77501 | 37.56777 | 35375 ft | 483 kts | 317° |
| 2026-05-07 16:44 | 24.80277 | 37.54673 | 35568 ft | 483 kts | 317° |
| 2026-05-07 16:44 | 24.83047 | 37.52574 | 35825 ft | 482 kts | 317° |
| 2026-05-07 16:44 | 24.85817 | 37.50474 | 36093 ft | 482 kts | 317° |
| 2026-05-07 16:44 | 24.88578 | 37.48377 | 36338 ft | 481 kts | 317° |
| 2026-05-07 16:45 | 24.91335 | 37.46282 | 36590 ft | 481 kts | 317° |
| 2026-05-07 16:45 | 24.94097 | 37.44182 | 36840 ft | 481 kts | 317° |
| 2026-05-07 16:45 | 24.96823 | 37.42109 | 37089 ft | 481 kts | 317° |
| 2026-05-07 16:45 | 24.99583 | 37.40009 | 37334 ft | 480 kts | 317° |
| 2026-05-07 16:46 | 25.02328 | 37.37920 | 37591 ft | 480 kts | 317° |
| 2026-05-07 16:46 | 25.05078 | 37.35826 | 37823 ft | 480 kts | 317° |
| 2026-05-07 16:46 | 25.07830 | 37.33729 | 38048 ft | 479 kts | 316° |
| 2026-05-07 16:46 | 25.10572 | 37.31638 | 38305 ft | 479 kts | 316° |
| 2026-05-07 16:47 | 25.13278 | 37.29574 | 38527 ft | 478 kts | 316° |
| 2026-05-07 16:47 | 25.16013 | 37.27486 | 38709 ft | 478 kts | 317° |
| 2026-05-07 16:47 | 25.18751 | 37.25395 | 38897 ft | 478 kts | 317° |
| 2026-05-07 16:47 | 25.21488 | 37.23304 | 39064 ft | 477 kts | 317° |
| 2026-05-07 16:48 | 25.24218 | 37.21217 | 39232 ft | 477 kts | 317° |
| 2026-05-07 16:48 | 25.26951 | 37.19126 | 39386 ft | 477 kts | 317° |
| 2026-05-07 16:48 | 25.29676 | 37.17040 | 39553 ft | 477 kts | 317° |
| 2026-05-07 16:48 | 25.32403 | 37.14952 | 39706 ft | 477 kts | 317° |
| 2026-05-07 16:49 | 25.35139 | 37.12855 | 39840 ft | 477 kts | 317° |
| 2026-05-07 16:49 | 25.40579 | 37.08680 | 39888 ft | 478 kts | 317° |
| 2026-05-07 16:50 | 25.46040 | 37.04486 | 39891 ft | 478 kts | 317° |
| 2026-05-07 16:50 | 25.51501 | 37.00288 | 39885 ft | 477 kts | 317° |
| 2026-05-07 16:51 | 25.56953 | 36.96091 | 39891 ft | 477 kts | 317° |
| 2026-05-07 16:51 | 25.62400 | 36.91893 | 39877 ft | 477 kts | 317° |
| 2026-05-07 16:52 | 25.67894 | 36.87632 | 39895 ft | 486 kts | 317° |
| 2026-05-07 16:52 | 25.73489 | 36.83294 | 39888 ft | 493 kts | 318° |
| 2026-05-07 16:53 | 25.79091 | 36.78979 | 39892 ft | 493 kts | 318° |
| 2026-05-07 16:53 | 25.84742 | 36.74622 | 39889 ft | 493 kts | 318° |
| 2026-05-07 16:54 | 25.90336 | 36.70291 | 39885 ft | 492 kts | 318° |
| 2026-05-07 16:54 | 25.95959 | 36.65927 | 39888 ft | 492 kts | 318° |
| 2026-05-07 16:55 | 26.01575 | 36.61562 | 39888 ft | 492 kts | 318° |
| 2026-05-07 16:55 | 26.07186 | 36.57197 | 39889 ft | 492 kts | 318° |
| 2026-05-07 16:56 | 26.12794 | 36.52830 | 39889 ft | 491 kts | 318° |
| 2026-05-07 16:56 | 26.20620 | 36.45744 | 39893 ft | 481 kts | 309° |
| 2026-05-07 16:57 | 26.25307 | 36.40440 | 39885 ft | 479 kts | 308° |
| 2026-05-07 16:57 | 26.29912 | 36.35083 | 39890 ft | 478 kts | 308° |
| 2026-05-07 16:58 | 26.34516 | 36.29733 | 39892 ft | 478 kts | 308° |
| 2026-05-07 16:58 | 26.38353 | 36.25292 | 39681 ft | 477 kts | 308° |
| 2026-05-07 16:59 | 26.40648 | 36.22654 | 39832 ft | 470 kts | 307° |
| 2026-05-07 16:59 | 26.42914 | 36.20045 | 39886 ft | 465 kts | 307° |
| 2026-05-07 16:59 | 26.47364 | 36.14892 | 39892 ft | 462 kts | 307° |
| 2026-05-07 17:00 | 26.51814 | 36.09722 | 39882 ft | 462 kts | 307° |
| 2026-05-07 17:00 | 26.56270 | 36.04540 | 39893 ft | 461 kts | 307° |
| 2026-05-07 17:01 | 26.60718 | 35.99374 | 39900 ft | 461 kts | 307° |
| 2026-05-07 17:01 | 26.65171 | 35.94195 | 39893 ft | 461 kts | 307° |
| 2026-05-07 17:02 | 26.69621 | 35.89014 | 39903 ft | 461 kts | 307° |
| 2026-05-07 17:02 | 26.74042 | 35.83860 | 39888 ft | 462 kts | 307° |
| 2026-05-07 17:03 | 26.78497 | 35.78661 | 39893 ft | 462 kts | 307° |
| 2026-05-07 17:03 | 26.82922 | 35.73490 | 39889 ft | 462 kts | 307° |
| 2026-05-07 17:04 | 26.87367 | 35.68291 | 39894 ft | 462 kts | 307° |
| 2026-05-07 17:04 | 26.91812 | 35.63083 | 39891 ft | 462 kts | 307° |
| 2026-05-07 17:05 | 26.96260 | 35.57867 | 39895 ft | 462 kts | 307° |
| 2026-05-07 17:05 | 27.00679 | 35.52679 | 39891 ft | 462 kts | 307° |
| 2026-05-07 17:06 | 27.05115 | 35.47465 | 39894 ft | 462 kts | 307° |
| 2026-05-07 17:06 | 27.09572 | 35.42219 | 39888 ft | 462 kts | 307° |
| 2026-05-07 17:07 | 27.13990 | 35.37012 | 39891 ft | 463 kts | 307° |
| 2026-05-07 17:07 | 27.18429 | 35.31774 | 39890 ft | 463 kts | 307° |
| 2026-05-07 17:08 | 27.22877 | 35.26519 | 39890 ft | 463 kts | 307° |
| 2026-05-07 17:08 | 27.27309 | 35.21277 | 39882 ft | 463 kts | 307° |
| 2026-05-07 17:09 | 27.31720 | 35.16053 | 39889 ft | 463 kts | 307° |
| 2026-05-07 17:09 | 27.36155 | 35.10794 | 39879 ft | 463 kts | 307° |
| 2026-05-07 17:10 | 27.40592 | 35.05527 | 39884 ft | 463 kts | 308° |
| 2026-05-07 17:10 | 27.45023 | 35.00259 | 39877 ft | 463 kts | 308° |
| 2026-05-07 17:11 | 27.49427 | 34.95018 | 39881 ft | 463 kts | 308° |
| 2026-05-07 17:11 | 27.53959 | 34.89829 | 39883 ft | 465 kts | 310° |
| 2026-05-07 17:12 | 27.58693 | 34.84816 | 39887 ft | 466 kts | 311° |
| 2026-05-07 17:12 | 27.63424 | 34.79877 | 39877 ft | 466 kts | 311° |
| 2026-05-07 17:13 | 27.68174 | 34.74890 | 39887 ft | 466 kts | 311° |
| 2026-05-07 17:13 | 27.72932 | 34.69886 | 39886 ft | 466 kts | 311° |
| 2026-05-07 17:14 | 27.77669 | 34.64888 | 39895 ft | 466 kts | 311° |
| 2026-05-07 17:14 | 27.82363 | 34.59908 | 39901 ft | 465 kts | 311° |
| 2026-05-07 17:15 | 27.87088 | 34.54880 | 39911 ft | 465 kts | 311° |
| 2026-05-07 17:15 | 27.91801 | 34.49859 | 39912 ft | 465 kts | 311° |
| 2026-05-07 17:16 | 27.96491 | 34.44861 | 39915 ft | 465 kts | 311° |
| 2026-05-07 17:16 | 28.00991 | 34.39638 | 39912 ft | 461 kts | 306° |
| 2026-05-07 17:17 | 28.05085 | 34.34110 | 39915 ft | 460 kts | 304° |
| 2026-05-07 17:17 | 28.09120 | 34.28505 | 39918 ft | 459 kts | 304° |
| 2026-05-07 17:18 | 28.13157 | 34.22880 | 39927 ft | 459 kts | 304° |
| 2026-05-07 17:18 | 28.17198 | 34.17262 | 39936 ft | 459 kts | 304° |
| 2026-05-07 17:19 | 28.21207 | 34.11692 | 39959 ft | 458 kts | 305° |
| 2026-05-07 17:19 | 28.25235 | 34.06086 | 39952 ft | 458 kts | 305° |
| 2026-05-07 17:20 | 28.29266 | 34.00474 | 39954 ft | 457 kts | 305° |
| 2026-05-07 17:20 | 28.33287 | 33.94870 | 39952 ft | 458 kts | 305° |
| 2026-05-07 17:21 | 28.37293 | 33.89259 | 39946 ft | 457 kts | 305° |
| 2026-05-07 17:21 | 28.41279 | 33.83687 | 39945 ft | 457 kts | 305° |
| 2026-05-07 17:22 | 28.45299 | 33.78069 | 39942 ft | 457 kts | 305° |
| 2026-05-07 17:22 | 28.49318 | 33.72439 | 39949 ft | 457 kts | 305° |
| 2026-05-07 17:23 | 28.53321 | 33.66812 | 39985 ft | 457 kts | 307° |
| 2026-05-07 17:23 | 28.57282 | 33.61207 | 39968 ft | 457 kts | 308° |
| 2026-05-07 17:24 | 28.61279 | 33.55569 | 39970 ft | 456 kts | 308° |
| 2026-05-07 17:24 | 28.65269 | 33.49951 | 39972 ft | 456 kts | 308° |
| 2026-05-07 17:25 | 28.69253 | 33.44331 | 39973 ft | 455 kts | 308° |
| 2026-05-07 17:25 | 28.73228 | 33.38717 | 39967 ft | 454 kts | 308° |
| 2026-05-07 17:26 | 28.77168 | 33.33143 | 39970 ft | 454 kts | 308° |
| 2026-05-07 17:26 | 28.81125 | 33.27541 | 39976 ft | 453 kts | 308° |
| 2026-05-07 17:27 | 28.85078 | 33.21942 | 39978 ft | 452 kts | 308° |
| 2026-05-07 17:27 | 28.89023 | 33.16345 | 39988 ft | 452 kts | 308° |
| 2026-05-07 17:28 | 28.92943 | 33.10772 | 39988 ft | 451 kts | 308° |
| 2026-05-07 17:28 | 28.96870 | 33.05180 | 39994 ft | 451 kts | 308° |
| 2026-05-07 17:29 | 29.00794 | 32.99584 | 39998 ft | 450 kts | 308° |
| 2026-05-07 17:29 | 29.04705 | 32.93992 | 40003 ft | 450 kts | 308° |
| 2026-05-07 17:30 | 29.08606 | 32.88409 | 40008 ft | 449 kts | 308° |
| 2026-05-07 17:30 | 29.12501 | 32.82830 | 40012 ft | 449 kts | 308° |
| 2026-05-07 17:31 | 29.16374 | 32.77277 | 40014 ft | 448 kts | 308° |
| 2026-05-07 17:31 | 29.20255 | 32.71706 | 40019 ft | 448 kts | 308° |
| 2026-05-07 17:32 | 29.24138 | 32.66124 | 40025 ft | 447 kts | 308° |
| 2026-05-07 17:32 | 29.27366 | 32.61478 | 40028 ft | 447 kts | 308° |
| 2026-05-07 17:33 | 29.31879 | 32.54939 | 40032 ft | 447 kts | 308° |
| 2026-05-07 17:33 | 29.35694 | 32.49378 | 40035 ft | 446 kts | 308° |
| 2026-05-07 17:34 | 29.39533 | 32.43785 | 40044 ft | 446 kts | 308° |
| 2026-05-07 17:34 | 29.43379 | 32.38178 | 40052 ft | 446 kts | 308° |
| 2026-05-07 17:35 | 29.47212 | 32.32562 | 40054 ft | 446 kts | 308° |
| 2026-05-07 17:35 | 29.51041 | 32.26944 | 40060 ft | 446 kts | 308° |
| 2026-05-07 17:36 | 29.54835 | 32.21375 | 40062 ft | 446 kts | 308° |
| 2026-05-07 17:36 | 29.58662 | 32.15756 | 40060 ft | 446 kts | 309° |
| 2026-05-07 17:37 | 29.62477 | 32.10148 | 40064 ft | 445 kts | 309° |
| 2026-05-07 17:37 | 29.66294 | 32.04528 | 40065 ft | 445 kts | 309° |
| 2026-05-07 17:38 | 29.70081 | 31.98944 | 40063 ft | 444 kts | 309° |
| 2026-05-07 17:38 | 29.73880 | 31.93335 | 40064 ft | 444 kts | 309° |
| 2026-05-07 17:39 | 29.77675 | 31.87724 | 40067 ft | 443 kts | 309° |
| 2026-05-07 17:39 | 29.81408 | 31.82062 | 40070 ft | 443 kts | 308° |
| 2026-05-07 17:40 | 29.84904 | 31.76636 | 40070 ft | 443 kts | 308° |
| 2026-05-07 17:40 | 29.88825 | 31.71183 | 40072 ft | 441 kts | 317° |
| 2026-05-07 17:41 | 29.93773 | 31.67049 | 40073 ft | 439 kts | 332° |
| 2026-05-07 17:41 | 29.99520 | 31.64803 | 40079 ft | 442 kts | 347° |
| 2026-05-07 17:42 | 30.05596 | 31.63630 | 40076 ft | 442 kts | 349° |
| 2026-05-07 17:42 | 30.11700 | 31.62613 | 40076 ft | 442 kts | 349° |
| 2026-05-07 17:43 | 30.17802 | 31.61579 | 40077 ft | 442 kts | 349° |
| 2026-05-07 17:43 | 30.23883 | 31.60507 | 40081 ft | 442 kts | 349° |
| 2026-05-07 17:44 | 30.29922 | 31.59420 | 40084 ft | 442 kts | 349° |
| 2026-05-07 17:44 | 30.36000 | 31.58322 | 40088 ft | 441 kts | 349° |
| 2026-05-07 17:45 | 30.42067 | 31.57226 | 40094 ft | 441 kts | 349° |
| 2026-05-07 17:45 | 30.48136 | 31.56129 | 40098 ft | 441 kts | 349° |
| 2026-05-07 17:46 | 30.54170 | 31.55037 | 40099 ft | 441 kts | 349° |
| 2026-05-07 17:46 | 30.59213 | 31.54124 | 40103 ft | 441 kts | 349° |
| 2026-05-07 17:47 | 30.65287 | 31.53023 | 40102 ft | 441 kts | 349° |
| 2026-05-07 17:47 | 30.71312 | 31.51930 | 40103 ft | 441 kts | 349° |
| 2026-05-07 17:48 | 30.77380 | 31.50827 | 40094 ft | 441 kts | 349° |
| 2026-05-07 17:48 | 30.83433 | 31.49722 | 40113 ft | 441 kts | 348° |
| 2026-05-07 17:49 | 30.89491 | 31.48615 | 40114 ft | 440 kts | 348° |
| 2026-05-07 17:49 | 30.95558 | 31.47505 | 40109 ft | 440 kts | 348° |
| 2026-05-07 17:50 | 31.01585 | 31.46402 | 40107 ft | 440 kts | 348° |
| 2026-05-07 17:50 | 31.07639 | 31.45292 | 40120 ft | 440 kts | 348° |
| 2026-05-07 17:51 | 31.13690 | 31.44181 | 40115 ft | 440 kts | 348° |
| 2026-05-07 17:51 | 31.19763 | 31.43064 | 40117 ft | 440 kts | 348° |
| 2026-05-07 17:52 | 31.25826 | 31.41948 | 40115 ft | 440 kts | 348° |
| 2026-05-07 17:52 | 31.31887 | 31.40827 | 40121 ft | 440 kts | 348° |
| 2026-05-07 17:53 | 31.37902 | 31.39712 | 40119 ft | 440 kts | 348° |
| 2026-05-07 17:53 | 31.43958 | 31.38587 | 40124 ft | 440 kts | 348° |
| 2026-05-07 17:54 | 31.50018 | 31.37461 | 40123 ft | 440 kts | 348° |
| 2026-05-07 17:54 | 31.56060 | 31.36364 | 40120 ft | 440 kts | 349° |
| 2026-05-07 17:55 | 31.62165 | 31.35602 | 40127 ft | 441 kts | 352° |
| 2026-05-07 17:55 | 31.68295 | 31.35008 | 40127 ft | 441 kts | 352° |
| 2026-05-07 17:56 | 31.74368 | 31.34423 | 40124 ft | 441 kts | 352° |
| 2026-05-07 17:56 | 31.80500 | 31.33820 | 40125 ft | 441 kts | 352° |
| 2026-05-07 17:57 | 31.85631 | 31.33310 | 40127 ft | 441 kts | 352° |
| 2026-05-07 17:57 | 31.92747 | 31.32573 | 40124 ft | 442 kts | 352° |
| 2026-05-07 17:58 | 31.98872 | 31.31924 | 40126 ft | 442 kts | 352° |
| 2026-05-07 17:58 | 32.05001 | 31.31273 | 40129 ft | 442 kts | 352° |
| 2026-05-07 17:59 | 32.11096 | 31.30623 | 40129 ft | 442 kts | 352° |
| 2026-05-07 17:59 | 32.17246 | 31.29965 | 40130 ft | 442 kts | 352° |
| 2026-05-07 18:00 | 32.23337 | 31.29311 | 40129 ft | 442 kts | 352° |
| 2026-05-07 18:00 | 32.29464 | 31.28650 | 40132 ft | 441 kts | 352° |
| 2026-05-07 18:01 | 32.35587 | 31.27990 | 40136 ft | 441 kts | 352° |
| 2026-05-07 18:01 | 32.41715 | 31.27329 | 40136 ft | 441 kts | 352° |
| 2026-05-07 18:02 | 32.50854 | 31.26340 | 40131 ft | 441 kts | 352° |
| 2026-05-07 18:03 | 32.56933 | 31.25360 | 40128 ft | 439 kts | 344° |
| 2026-05-07 18:03 | 32.62627 | 31.22851 | 40132 ft | 436 kts | 334° |
| 2026-05-07 18:04 | 32.68082 | 31.19721 | 40133 ft | 435 kts | 332° |
| 2026-05-07 18:04 | 32.73488 | 31.16498 | 40139 ft | 435 kts | 332° |
| 2026-05-07 18:05 | 32.78912 | 31.13286 | 40142 ft | 434 kts | 332° |
| 2026-05-07 18:05 | 32.84329 | 31.10102 | 40146 ft | 434 kts | 333° |
| 2026-05-07 18:06 | 32.89712 | 31.06946 | 40136 ft | 433 kts | 333° |
| 2026-05-07 18:06 | 32.95124 | 31.03768 | 40132 ft | 433 kts | 333° |
| 2026-05-07 18:07 | 33.00509 | 31.00602 | 40140 ft | 432 kts | 333° |
| 2026-05-07 18:07 | 33.05882 | 30.97452 | 40140 ft | 432 kts | 334° |
| 2026-05-07 18:08 | 33.11604 | 30.95233 | 40143 ft | 435 kts | 347° |
| 2026-05-07 18:08 | 33.17676 | 30.94599 | 40146 ft | 438 kts | 354° |
| 2026-05-07 18:09 | 33.23770 | 30.94383 | 40145 ft | 439 kts | 355° |
| 2026-05-07 18:09 | 33.29853 | 30.94222 | 40143 ft | 439 kts | 355° |
| 2026-05-07 18:10 | 33.35969 | 30.94025 | 40144 ft | 439 kts | 354° |
| 2026-05-07 18:10 | 33.42083 | 30.93801 | 40143 ft | 439 kts | 354° |
| 2026-05-07 18:11 | 33.48194 | 30.93568 | 40141 ft | 439 kts | 354° |
| 2026-05-07 18:11 | 33.54281 | 30.93335 | 40143 ft | 439 kts | 354° |
| 2026-05-07 18:12 | 33.60419 | 30.93103 | 40143 ft | 440 kts | 354° |
| 2026-05-07 18:12 | 33.66535 | 30.92871 | 40141 ft | 440 kts | 354° |
| 2026-05-07 18:13 | 33.72621 | 30.92641 | 40145 ft | 440 kts | 354° |
| 2026-05-07 18:13 | 33.78751 | 30.92408 | 40143 ft | 440 kts | 354° |
| 2026-05-07 18:14 | 33.84882 | 30.92174 | 40146 ft | 440 kts | 354° |
| 2026-05-07 18:14 | 33.90979 | 30.91942 | 40146 ft | 441 kts | 354° |
| 2026-05-07 18:15 | 33.97112 | 30.91692 | 40147 ft | 441 kts | 354° |
| 2026-05-07 18:15 | 34.03256 | 30.91359 | 40148 ft | 441 kts | 353° |
| 2026-05-07 18:16 | 34.09361 | 30.91007 | 40141 ft | 441 kts | 353° |
| 2026-05-07 18:16 | 34.15498 | 30.90658 | 40144 ft | 442 kts | 353° |
| 2026-05-07 18:17 | 34.21648 | 30.90315 | 40144 ft | 442 kts | 353° |
| 2026-05-07 18:17 | 34.27799 | 30.89987 | 40144 ft | 442 kts | 353° |
| 2026-05-07 18:18 | 34.33962 | 30.89687 | 40145 ft | 443 kts | 354° |
| 2026-05-07 18:18 | 34.40091 | 30.89392 | 40143 ft | 443 kts | 354° |
| 2026-05-07 18:19 | 34.46263 | 30.89092 | 40144 ft | 443 kts | 353° |
| 2026-05-07 18:19 | 34.52442 | 30.88789 | 40146 ft | 444 kts | 353° |
| 2026-05-07 18:20 | 34.58585 | 30.88486 | 40143 ft | 444 kts | 353° |
| 2026-05-07 18:20 | 34.64779 | 30.88211 | 40146 ft | 445 kts | 354° |
| 2026-05-07 18:21 | 34.70989 | 30.88007 | 40146 ft | 446 kts | 354° |
| 2026-05-07 18:21 | 34.77203 | 30.87815 | 40141 ft | 446 kts | 354° |
| 2026-05-07 18:22 | 34.83372 | 30.87617 | 40144 ft | 446 kts | 354° |
| 2026-05-07 18:22 | 34.89614 | 30.87411 | 40144 ft | 447 kts | 354° |
| 2026-05-07 18:23 | 34.95836 | 30.87205 | 40143 ft | 447 kts | 354° |
| 2026-05-07 18:23 | 35.02022 | 30.86999 | 40145 ft | 447 kts | 354° |
| 2026-05-07 18:24 | 35.08253 | 30.86791 | 40144 ft | 448 kts | 354° |
| 2026-05-07 18:24 | 35.14493 | 30.86583 | 40142 ft | 448 kts | 354° |
| 2026-05-07 18:25 | 35.20706 | 30.86376 | 40144 ft | 448 kts | 354° |
| 2026-05-07 18:25 | 35.26943 | 30.86167 | 40140 ft | 449 kts | 354° |
| 2026-05-07 18:26 | 35.33206 | 30.85957 | 40137 ft | 449 kts | 354° |
| 2026-05-07 18:26 | 35.39452 | 30.85748 | 40137 ft | 449 kts | 354° |
| 2026-05-07 18:27 | 35.45673 | 30.85539 | 40140 ft | 449 kts | 354° |
| 2026-05-07 18:27 | 35.51938 | 30.85328 | 40138 ft | 450 kts | 354° |
| 2026-05-07 18:28 | 35.58197 | 30.85117 | 40135 ft | 450 kts | 354° |
| 2026-05-07 18:28 | 35.64468 | 30.84866 | 40134 ft | 450 kts | 353° |
| 2026-05-07 18:29 | 35.70696 | 30.84494 | 40131 ft | 450 kts | 353° |
| 2026-05-07 18:29 | 35.76958 | 30.84094 | 40128 ft | 450 kts | 353° |
| 2026-05-07 18:30 | 35.83243 | 30.83703 | 40127 ft | 451 kts | 353° |
| 2026-05-07 18:30 | 35.89486 | 30.83325 | 40123 ft | 451 kts | 353° |
| 2026-05-07 18:31 | 35.95780 | 30.82945 | 40127 ft | 452 kts | 353° |
| 2026-05-07 18:31 | 36.02068 | 30.82565 | 40121 ft | 452 kts | 353° |
| 2026-05-07 18:32 | 36.08323 | 30.82254 | 40122 ft | 453 kts | 354° |
| 2026-05-07 18:32 | 36.14636 | 30.82046 | 40115 ft | 453 kts | 355° |
| 2026-05-07 18:33 | 36.19887 | 30.81898 | 40117 ft | 453 kts | 354° |
| 2026-05-07 18:33 | 36.26197 | 30.81706 | 40111 ft | 454 kts | 354° |
| 2026-05-07 18:34 | 36.32517 | 30.81500 | 40117 ft | 454 kts | 354° |
| 2026-05-07 18:34 | 36.38843 | 30.81287 | 40101 ft | 454 kts | 354° |
| 2026-05-07 18:35 | 36.45133 | 30.81074 | 40108 ft | 455 kts | 354° |
| 2026-05-07 18:35 | 36.51463 | 30.80855 | 40113 ft | 455 kts | 354° |
| 2026-05-07 18:36 | 36.57801 | 30.80636 | 40110 ft | 455 kts | 354° |
| 2026-05-07 18:36 | 36.64149 | 30.80416 | 40120 ft | 456 kts | 354° |
| 2026-05-07 18:37 | 36.70465 | 30.80198 | 40133 ft | 456 kts | 354° |
| 2026-05-07 18:37 | 36.76810 | 30.79978 | 40153 ft | 456 kts | 354° |
| 2026-05-07 18:38 | 36.83159 | 30.79758 | 40154 ft | 456 kts | 354° |
| 2026-05-07 18:38 | 36.89527 | 30.79538 | 40156 ft | 456 kts | 354° |
| 2026-05-07 18:39 | 36.95874 | 30.79971 | 40160 ft | 460 kts | 1° |
| 2026-05-07 18:39 | 37.02257 | 30.80826 | 40152 ft | 461 kts | 2° |
| 2026-05-07 18:40 | 37.08631 | 30.81753 | 40142 ft | 461 kts | 2° |
| 2026-05-07 18:40 | 37.15040 | 30.82679 | 40141 ft | 461 kts | 2° |
| 2026-05-07 18:41 | 37.21371 | 30.83581 | 40137 ft | 461 kts | 2° |
| 2026-05-07 18:41 | 37.27751 | 30.84486 | 40137 ft | 461 kts | 2° |
| 2026-05-07 18:42 | 37.34131 | 30.85391 | 40147 ft | 461 kts | 2° |
| 2026-05-07 18:42 | 37.40529 | 30.86300 | 40152 ft | 461 kts | 2° |
| 2026-05-07 18:43 | 37.46914 | 30.87210 | 40159 ft | 461 kts | 2° |
| 2026-05-07 18:43 | 37.53263 | 30.88116 | 40168 ft | 462 kts | 2° |
| 2026-05-07 18:44 | 37.59652 | 30.89030 | 40173 ft | 462 kts | 2° |
| 2026-05-07 18:44 | 37.66038 | 30.89945 | 40177 ft | 462 kts | 2° |
| 2026-05-07 18:45 | 37.72437 | 30.90863 | 40184 ft | 462 kts | 2° |
| 2026-05-07 18:45 | 37.78795 | 30.91777 | 40188 ft | 462 kts | 2° |
| 2026-05-07 18:46 | 37.85205 | 30.92700 | 40192 ft | 463 kts | 2° |
| 2026-05-07 18:46 | 37.91614 | 30.93625 | 40196 ft | 463 kts | 2° |
| 2026-05-07 18:47 | 37.98020 | 30.94551 | 40190 ft | 463 kts | 2° |
| 2026-05-07 18:47 | 38.04377 | 30.95471 | 40185 ft | 463 kts | 2° |
| 2026-05-07 18:48 | 38.10779 | 30.96400 | 40190 ft | 463 kts | 2° |
| 2026-05-07 18:48 | 38.17203 | 30.97333 | 40187 ft | 462 kts | 2° |
| 2026-05-07 18:49 | 38.23564 | 30.98259 | 40187 ft | 462 kts | 2° |
| 2026-05-07 18:49 | 38.29962 | 30.99192 | 40199 ft | 463 kts | 2° |
| 2026-05-07 18:50 | 38.36365 | 31.00128 | 40183 ft | 463 kts | 2° |
| 2026-05-07 18:50 | 38.42765 | 31.01057 | 40185 ft | 462 kts | 2° |
| 2026-05-07 18:51 | 38.49131 | 31.00854 | 40186 ft | 456 kts | 347° |
| 2026-05-07 18:51 | 38.55181 | 30.98638 | 40189 ft | 452 kts | 338° |
| 2026-05-07 18:52 | 38.61089 | 30.95846 | 40181 ft | 451 kts | 337° |
| 2026-05-07 18:52 | 38.66910 | 30.92996 | 40181 ft | 451 kts | 337° |
| 2026-05-07 18:53 | 38.72779 | 30.90137 | 40183 ft | 451 kts | 337° |
| 2026-05-07 18:53 | 38.78650 | 30.87297 | 40180 ft | 450 kts | 337° |
| 2026-05-07 18:54 | 38.84514 | 30.84465 | 40181 ft | 450 kts | 337° |
| 2026-05-07 18:54 | 38.90359 | 30.81637 | 40182 ft | 450 kts | 337° |
| 2026-05-07 18:55 | 38.96211 | 30.78802 | 40181 ft | 450 kts | 337° |
| 2026-05-07 18:55 | 39.02062 | 30.75960 | 40172 ft | 449 kts | 337° |
| 2026-05-07 18:56 | 39.07921 | 30.73108 | 40175 ft | 449 kts | 337° |
| 2026-05-07 18:56 | 39.13781 | 30.70251 | 40177 ft | 449 kts | 337° |
| 2026-05-07 18:57 | 39.19636 | 30.67391 | 40176 ft | 449 kts | 337° |
| 2026-05-07 18:57 | 39.25449 | 30.64547 | 40171 ft | 449 kts | 337° |
| 2026-05-07 18:58 | 39.31296 | 30.61681 | 40173 ft | 449 kts | 337° |
| 2026-05-07 18:58 | 39.37160 | 30.58801 | 40167 ft | 450 kts | 337° |
| 2026-05-07 18:59 | 39.43009 | 30.55924 | 40166 ft | 450 kts | 337° |
| 2026-05-07 18:59 | 39.48830 | 30.53056 | 40173 ft | 450 kts | 337° |
| 2026-05-07 19:00 | 39.54675 | 30.50153 | 40178 ft | 450 kts | 336° |
| 2026-05-07 19:00 | 39.60437 | 30.46946 | 40188 ft | 449 kts | 334° |
| 2026-05-07 19:01 | 39.66082 | 30.43606 | 40198 ft | 449 kts | 334° |
| 2026-05-07 19:01 | 39.71776 | 30.40236 | 40201 ft | 449 kts | 334° |
| 2026-05-07 19:02 | 39.77474 | 30.36893 | 40203 ft | 449 kts | 334° |
| 2026-05-07 19:02 | 39.83176 | 30.33558 | 40197 ft | 449 kts | 334° |
| 2026-05-07 19:03 | 39.88852 | 30.30234 | 40186 ft | 450 kts | 334° |
| 2026-05-07 19:03 | 39.94560 | 30.26883 | 40173 ft | 450 kts | 334° |
| 2026-05-07 19:04 | 40.00281 | 30.23518 | 40164 ft | 450 kts | 334° |
| 2026-05-07 19:04 | 40.05993 | 30.20151 | 40139 ft | 450 kts | 334° |
| 2026-05-07 19:05 | 40.11676 | 30.16795 | 40132 ft | 450 kts | 334° |
| 2026-05-07 19:05 | 40.17390 | 30.13416 | 40128 ft | 450 kts | 334° |
| 2026-05-07 19:06 | 40.23101 | 30.10031 | 40125 ft | 450 kts | 334° |
| 2026-05-07 19:06 | 40.31646 | 30.04956 | 40118 ft | 451 kts | 334° |
| 2026-05-07 19:07 | 40.37364 | 30.01553 | 40113 ft | 451 kts | 334° |
| 2026-05-07 19:07 | 40.43085 | 29.98140 | 40113 ft | 451 kts | 334° |
| 2026-05-07 19:08 | 40.48796 | 29.94727 | 40113 ft | 451 kts | 334° |
| 2026-05-07 19:08 | 40.54478 | 29.91325 | 40117 ft | 452 kts | 334° |
| 2026-05-07 19:09 | 40.60205 | 29.87889 | 40117 ft | 452 kts | 334° |
| 2026-05-07 19:09 | 40.65932 | 29.84446 | 40118 ft | 452 kts | 334° |
| 2026-05-07 19:10 | 40.71661 | 29.80995 | 40120 ft | 452 kts | 334° |
| 2026-05-07 19:10 | 40.77361 | 29.77558 | 40115 ft | 452 kts | 334° |
| 2026-05-07 19:11 | 40.83086 | 29.74095 | 40113 ft | 452 kts | 334° |
| 2026-05-07 19:11 | 40.88808 | 29.70620 | 40109 ft | 453 kts | 333° |
| 2026-05-07 19:12 | 40.94528 | 29.67118 | 40109 ft | 453 kts | 333° |
| 2026-05-07 19:12 | 41.00251 | 29.63614 | 40113 ft | 453 kts | 333° |
| 2026-05-07 19:13 | 41.05938 | 29.60144 | 40110 ft | 453 kts | 333° |
| 2026-05-07 19:13 | 41.11666 | 29.56649 | 40108 ft | 453 kts | 333° |
| 2026-05-07 19:14 | 41.17408 | 29.53140 | 40108 ft | 454 kts | 333° |
| 2026-05-07 19:14 | 41.23371 | 29.50299 | 40105 ft | 456 kts | 341° |
| 2026-05-07 19:15 | 41.29469 | 29.47929 | 40104 ft | 456 kts | 342° |
| 2026-05-07 19:15 | 41.35555 | 29.45648 | 40106 ft | 457 kts | 342° |
| 2026-05-07 19:16 | 41.41674 | 29.43344 | 40107 ft | 457 kts | 342° |
| 2026-05-07 19:16 | 41.47799 | 29.41016 | 40108 ft | 457 kts | 341° |
| 2026-05-07 19:17 | 41.53915 | 29.38679 | 40108 ft | 457 kts | 341° |
| 2026-05-07 19:17 | 41.59990 | 29.36352 | 40109 ft | 457 kts | 341° |
| 2026-05-07 19:18 | 41.66103 | 29.34008 | 40112 ft | 457 kts | 341° |
| 2026-05-07 19:18 | 41.72221 | 29.31657 | 40111 ft | 457 kts | 341° |
| 2026-05-07 19:19 | 41.77311 | 29.29697 | 40113 ft | 457 kts | 341° |
| 2026-05-07 19:19 | 41.84452 | 29.26943 | 40116 ft | 458 kts | 341° |
| 2026-05-07 19:20 | 41.89537 | 29.24977 | 40116 ft | 458 kts | 341° |
| 2026-05-07 19:20 | 41.95667 | 29.22604 | 40119 ft | 458 kts | 341° |
| 2026-05-07 19:21 | 42.01806 | 29.20222 | 40120 ft | 458 kts | 341° |
| 2026-05-07 19:21 | 42.07944 | 29.17836 | 40118 ft | 458 kts | 341° |
| 2026-05-07 19:22 | 42.14028 | 29.15408 | 40120 ft | 458 kts | 339° |
| 2026-05-07 19:22 | 42.19693 | 29.11592 | 40125 ft | 454 kts | 325° |
| 2026-05-07 19:23 | 42.24869 | 29.06672 | 40119 ft | 454 kts | 323° |
| 2026-05-07 19:23 | 42.29925 | 29.01603 | 40122 ft | 454 kts | 322° |
| 2026-05-07 19:24 | 42.34995 | 28.96483 | 40121 ft | 455 kts | 322° |
| 2026-05-07 19:24 | 42.40042 | 28.91401 | 40121 ft | 455 kts | 322° |
| 2026-05-07 19:25 | 42.45134 | 28.86281 | 40122 ft | 455 kts | 322° |
| 2026-05-07 19:25 | 42.50215 | 28.81164 | 40126 ft | 455 kts | 322° |
| 2026-05-07 19:26 | 42.55303 | 28.76030 | 40125 ft | 455 kts | 322° |
| 2026-05-07 19:26 | 42.60361 | 28.70914 | 40122 ft | 456 kts | 322° |
| 2026-05-07 19:27 | 42.65446 | 28.65760 | 40122 ft | 456 kts | 322° |
| 2026-05-07 19:27 | 42.70526 | 28.60596 | 40122 ft | 456 kts | 322° |
| 2026-05-07 19:28 | 42.75615 | 28.55409 | 40122 ft | 456 kts | 322° |
| 2026-05-07 19:28 | 42.80676 | 28.50244 | 40125 ft | 456 kts | 322° |
| 2026-05-07 19:29 | 42.85762 | 28.45051 | 40122 ft | 457 kts | 322° |
| 2026-05-07 19:29 | 42.90862 | 28.39834 | 40124 ft | 457 kts | 321° |
| 2026-05-07 19:30 | 42.95944 | 28.34620 | 40124 ft | 457 kts | 321° |
| 2026-05-07 19:30 | 43.01003 | 28.29416 | 40124 ft | 457 kts | 321° |
| 2026-05-07 19:31 | 43.06097 | 28.24165 | 40124 ft | 458 kts | 321° |
| 2026-05-07 19:31 | 43.11183 | 28.18911 | 40114 ft | 458 kts | 321° |
| 2026-05-07 19:32 | 43.16266 | 28.13650 | 40117 ft | 458 kts | 321° |
| 2026-05-07 19:32 | 43.21327 | 28.08399 | 40108 ft | 459 kts | 321° |
| 2026-05-07 19:33 | 43.26427 | 28.03096 | 40104 ft | 459 kts | 321° |
| 2026-05-07 19:33 | 43.31518 | 27.97791 | 40107 ft | 459 kts | 321° |
| 2026-05-07 19:34 | 43.36615 | 27.92470 | 40105 ft | 460 kts | 321° |
| 2026-05-07 19:34 | 43.41702 | 27.87147 | 40100 ft | 460 kts | 321° |
| 2026-05-07 19:35 | 43.46791 | 27.81810 | 40100 ft | 460 kts | 321° |
| 2026-05-07 19:35 | 43.51852 | 27.76492 | 40098 ft | 460 kts | 321° |
| 2026-05-07 19:36 | 43.56952 | 27.71120 | 40090 ft | 461 kts | 321° |
| 2026-05-07 19:36 | 43.62050 | 27.65738 | 40088 ft | 461 kts | 320° |
| 2026-05-07 19:37 | 43.67123 | 27.60372 | 40084 ft | 461 kts | 320° |
| 2026-05-07 19:37 | 43.72229 | 27.54959 | 40076 ft | 462 kts | 320° |
| 2026-05-07 19:38 | 43.77338 | 27.49531 | 40077 ft | 462 kts | 320° |
| 2026-05-07 19:38 | 43.82404 | 27.44136 | 40074 ft | 462 kts | 320° |
| 2026-05-07 19:39 | 43.87501 | 27.38696 | 40067 ft | 462 kts | 320° |
| 2026-05-07 19:39 | 43.92592 | 27.33251 | 40065 ft | 463 kts | 320° |
| 2026-05-07 19:40 | 43.97694 | 27.27782 | 40061 ft | 463 kts | 320° |
| 2026-05-07 19:40 | 44.02792 | 27.22305 | 40063 ft | 463 kts | 320° |
| 2026-05-07 19:41 | 44.07862 | 27.16846 | 40058 ft | 463 kts | 320° |
| 2026-05-07 19:41 | 44.12961 | 27.11343 | 40061 ft | 463 kts | 320° |
| 2026-05-07 19:42 | 44.18062 | 27.05827 | 40044 ft | 464 kts | 320° |
| 2026-05-07 19:42 | 44.23123 | 27.00341 | 40043 ft | 464 kts | 320° |
| 2026-05-07 19:43 | 44.28225 | 26.94797 | 40044 ft | 464 kts | 320° |
| 2026-05-07 19:43 | 44.33325 | 26.89242 | 40046 ft | 464 kts | 320° |
| 2026-05-07 19:44 | 44.38413 | 26.83690 | 40047 ft | 464 kts | 320° |
| 2026-05-07 19:44 | 44.43488 | 26.78139 | 40048 ft | 464 kts | 320° |
| 2026-05-07 19:45 | 44.48598 | 26.72536 | 40049 ft | 465 kts | 320° |
| 2026-05-07 19:45 | 44.53649 | 26.66985 | 40046 ft | 465 kts | 319° |
| 2026-05-07 19:46 | 44.58749 | 26.61367 | 40045 ft | 465 kts | 319° |
| 2026-05-07 19:46 | 44.63835 | 26.55753 | 40044 ft | 465 kts | 319° |
| 2026-05-07 19:47 | 44.68922 | 26.50125 | 40050 ft | 465 kts | 319° |
| 2026-05-07 19:47 | 44.74007 | 26.44486 | 40049 ft | 466 kts | 319° |
| 2026-05-07 19:48 | 44.79068 | 26.38860 | 40049 ft | 466 kts | 319° |
| 2026-05-07 19:48 | 44.84156 | 26.33192 | 40051 ft | 466 kts | 319° |
| 2026-05-07 19:49 | 44.89245 | 26.27509 | 40050 ft | 467 kts | 319° |
| 2026-05-07 19:49 | 44.94347 | 26.21798 | 40055 ft | 467 kts | 319° |
| 2026-05-07 19:50 | 44.99434 | 26.16090 | 40055 ft | 467 kts | 319° |
| 2026-05-07 19:50 | 45.04530 | 26.10362 | 40060 ft | 468 kts | 319° |
| 2026-05-07 19:51 | 45.09586 | 26.04664 | 40063 ft | 468 kts | 319° |
| 2026-05-07 19:51 | 45.14685 | 25.98902 | 40063 ft | 468 kts | 319° |
| 2026-05-07 19:52 | 45.19782 | 25.93130 | 40068 ft | 469 kts | 319° |
| 2026-05-07 19:52 | 45.24876 | 25.87347 | 40072 ft | 469 kts | 319° |
| 2026-05-07 19:53 | 45.29981 | 25.81539 | 40074 ft | 470 kts | 319° |
| 2026-05-07 19:53 | 45.35078 | 25.75728 | 40074 ft | 470 kts | 319° |
| 2026-05-07 19:54 | 45.40179 | 25.69894 | 40071 ft | 470 kts | 319° |
| 2026-05-07 19:54 | 45.45242 | 25.64091 | 40065 ft | 470 kts | 319° |
| 2026-05-07 19:55 | 45.50341 | 25.58232 | 40057 ft | 470 kts | 319° |
| 2026-05-07 19:55 | 45.55398 | 25.52408 | 40053 ft | 470 kts | 319° |
| 2026-05-07 19:56 | 45.60479 | 25.46542 | 40049 ft | 469 kts | 319° |
| 2026-05-07 19:56 | 45.65563 | 25.40659 | 40049 ft | 469 kts | 319° |
| 2026-05-07 19:57 | 45.70633 | 25.34781 | 40051 ft | 470 kts | 319° |
| 2026-05-07 19:57 | 45.75717 | 25.28872 | 40049 ft | 470 kts | 318° |
| 2026-05-07 19:58 | 45.80790 | 25.22959 | 40046 ft | 470 kts | 318° |
| 2026-05-07 19:58 | 45.85834 | 25.17065 | 40046 ft | 470 kts | 318° |
| 2026-05-07 19:59 | 45.90914 | 25.11115 | 40039 ft | 470 kts | 318° |
| 2026-05-07 19:59 | 45.95988 | 25.05160 | 40034 ft | 471 kts | 318° |
| 2026-05-07 20:00 | 46.01026 | 24.99232 | 40043 ft | 471 kts | 318° |
| 2026-05-07 20:00 | 46.06102 | 24.93243 | 40034 ft | 471 kts | 318° |
| 2026-05-07 20:01 | 46.11177 | 24.87240 | 40039 ft | 471 kts | 318° |
| 2026-05-07 20:01 | 46.16244 | 24.81233 | 40030 ft | 471 kts | 318° |
| 2026-05-07 20:02 | 46.21282 | 24.75246 | 40030 ft | 472 kts | 317° |
| 2026-05-07 20:02 | 46.26345 | 24.69216 | 40035 ft | 472 kts | 317° |
| 2026-05-07 20:03 | 46.31413 | 24.63164 | 40048 ft | 472 kts | 317° |
| 2026-05-07 20:03 | 46.36456 | 24.57127 | 40038 ft | 472 kts | 317° |
| 2026-05-07 20:04 | 46.41521 | 24.51048 | 40047 ft | 472 kts | 317° |
| 2026-05-07 20:04 | 46.46581 | 24.44958 | 40048 ft | 472 kts | 317° |
| 2026-05-07 20:05 | 46.51612 | 24.38890 | 40051 ft | 472 kts | 317° |
| 2026-05-07 20:05 | 46.56675 | 24.32767 | 40047 ft | 473 kts | 317° |
| 2026-05-07 20:06 | 46.61735 | 24.26632 | 40039 ft | 473 kts | 317° |
| 2026-05-07 20:06 | 46.66791 | 24.20488 | 40038 ft | 473 kts | 317° |
| 2026-05-07 20:07 | 46.71850 | 24.14325 | 40031 ft | 474 kts | 317° |
| 2026-05-07 20:07 | 46.76881 | 24.08180 | 40041 ft | 474 kts | 317° |
| 2026-05-07 20:08 | 46.81934 | 24.01992 | 40044 ft | 474 kts | 317° |
| 2026-05-07 20:08 | 46.86136 | 23.96833 | 40044 ft | 474 kts | 317° |
| 2026-05-07 20:09 | 46.91190 | 23.90616 | 40044 ft | 475 kts | 317° |
| 2026-05-07 20:10 | 46.98776 | 23.81253 | 40044 ft | 475 kts | 317° |
| 2026-05-07 20:10 | 47.03806 | 23.75026 | 40044 ft | 475 kts | 317° |
| 2026-05-07 20:11 | 47.08850 | 23.68765 | 40040 ft | 475 kts | 317° |
| 2026-05-07 20:11 | 47.13880 | 23.62429 | 40043 ft | 474 kts | 315° |
| 2026-05-07 20:12 | 47.18734 | 23.55948 | 40042 ft | 474 kts | 314° |
| 2026-05-07 20:12 | 47.23610 | 23.49320 | 40039 ft | 474 kts | 314° |
| 2026-05-07 20:13 | 47.28431 | 23.42777 | 40039 ft | 474 kts | 314° |
| 2026-05-07 20:13 | 47.33299 | 23.36187 | 40035 ft | 474 kts | 314° |
| 2026-05-07 20:14 | 47.38157 | 23.29600 | 40036 ft | 474 kts | 314° |
| 2026-05-07 20:14 | 47.42983 | 23.23042 | 40039 ft | 474 kts | 314° |
| 2026-05-07 20:15 | 47.47849 | 23.16408 | 40037 ft | 474 kts | 314° |
| 2026-05-07 20:15 | 47.52671 | 23.09818 | 40040 ft | 474 kts | 314° |
| 2026-05-07 20:16 | 47.57514 | 23.03181 | 40042 ft | 474 kts | 314° |
| 2026-05-07 20:16 | 47.62362 | 22.96519 | 40052 ft | 474 kts | 314° |
| 2026-05-07 20:17 | 47.67200 | 22.89853 | 40048 ft | 474 kts | 314° |
| 2026-05-07 20:17 | 47.72037 | 22.83170 | 40049 ft | 475 kts | 313° |
| 2026-05-07 20:18 | 47.76845 | 22.76511 | 40048 ft | 475 kts | 313° |
| 2026-05-07 20:18 | 47.81681 | 22.69795 | 40043 ft | 475 kts | 313° |
| 2026-05-07 20:19 | 47.86517 | 22.63061 | 40033 ft | 476 kts | 313° |
| 2026-05-07 20:19 | 47.91357 | 22.56303 | 40032 ft | 476 kts | 313° |
| 2026-05-07 20:20 | 47.96189 | 22.49538 | 40019 ft | 477 kts | 313° |
| 2026-05-07 20:20 | 48.01005 | 22.42778 | 40019 ft | 477 kts | 313° |
| 2026-05-07 20:21 | 48.05855 | 22.35951 | 40023 ft | 478 kts | 313° |
| 2026-05-07 20:21 | 48.10678 | 22.29144 | 40005 ft | 478 kts | 313° |
| 2026-05-07 20:22 | 48.15489 | 22.22336 | 40011 ft | 479 kts | 313° |
| 2026-05-07 20:22 | 48.20327 | 22.15470 | 40012 ft | 479 kts | 313° |
| 2026-05-07 20:23 | 48.25165 | 22.08586 | 40008 ft | 479 kts | 313° |
| 2026-05-07 20:23 | 48.30014 | 22.01668 | 40004 ft | 480 kts | 312° |
| 2026-05-07 20:24 | 48.34885 | 21.94763 | 40004 ft | 482 kts | 314° |
| 2026-05-07 20:24 | 48.40333 | 21.88895 | 40001 ft | 487 kts | 323° |
| 2026-05-07 20:25 | 48.46105 | 21.83478 | 39998 ft | 489 kts | 324° |
| 2026-05-07 20:25 | 48.51926 | 21.78152 | 40000 ft | 489 kts | 324° |
| 2026-05-07 20:26 | 48.57750 | 21.72793 | 39995 ft | 489 kts | 324° |
| 2026-05-07 20:26 | 48.63526 | 21.67434 | 40003 ft | 490 kts | 324° |
| 2026-05-07 20:27 | 48.69344 | 21.62009 | 40005 ft | 490 kts | 324° |
| 2026-05-07 20:27 | 48.75153 | 21.56575 | 40005 ft | 491 kts | 324° |
| 2026-05-07 20:28 | 48.80980 | 21.51113 | 40006 ft | 491 kts | 324° |
| 2026-05-07 20:28 | 48.86764 | 21.45675 | 40004 ft | 492 kts | 324° |
| 2026-05-07 20:29 | 48.92594 | 21.40178 | 40003 ft | 492 kts | 324° |
| 2026-05-07 20:29 | 48.98415 | 21.34675 | 39992 ft | 492 kts | 324° |
| 2026-05-07 20:30 | 49.04242 | 21.29151 | 39993 ft | 493 kts | 324° |
| 2026-05-07 20:30 | 49.10025 | 21.23654 | 39992 ft | 493 kts | 324° |
| 2026-05-07 20:31 | 49.15851 | 21.18100 | 39973 ft | 493 kts | 324° |
| 2026-05-07 20:31 | 49.21682 | 21.12525 | 39980 ft | 493 kts | 324° |
| 2026-05-07 20:32 | 49.27466 | 21.06982 | 39990 ft | 494 kts | 324° |
| 2026-05-07 20:32 | 49.33301 | 21.01371 | 39988 ft | 494 kts | 324° |
| 2026-05-07 20:33 | 49.39086 | 20.95646 | 39992 ft | 494 kts | 323° |
| 2026-05-07 20:33 | 49.44830 | 20.89826 | 39994 ft | 494 kts | 323° |
| 2026-05-07 20:34 | 49.50527 | 20.84012 | 39998 ft | 494 kts | 323° |
| 2026-05-07 20:34 | 49.56264 | 20.78143 | 39989 ft | 494 kts | 323° |
| 2026-05-07 20:35 | 49.62008 | 20.72260 | 39995 ft | 495 kts | 323° |
| 2026-05-07 20:35 | 49.67755 | 20.66358 | 39993 ft | 496 kts | 323° |
| 2026-05-07 20:36 | 49.73467 | 20.60477 | 39992 ft | 497 kts | 323° |
| 2026-05-07 20:36 | 49.79224 | 20.54533 | 39993 ft | 497 kts | 323° |
| 2026-05-07 20:37 | 49.84987 | 20.48565 | 39990 ft | 498 kts | 322° |
| 2026-05-07 20:37 | 49.90762 | 20.42568 | 39989 ft | 498 kts | 322° |
| 2026-05-07 20:38 | 49.96478 | 20.36614 | 39987 ft | 499 kts | 322° |
| 2026-05-07 20:38 | 50.02240 | 20.30594 | 39991 ft | 499 kts | 322° |
| 2026-05-07 20:39 | 50.07999 | 20.24560 | 39995 ft | 499 kts | 322° |
| 2026-05-07 20:39 | 50.13758 | 20.18506 | 39999 ft | 499 kts | 322° |
| 2026-05-07 20:40 | 50.19524 | 20.12428 | 40003 ft | 499 kts | 322° |
| 2026-05-07 20:40 | 50.25287 | 20.06335 | 40002 ft | 499 kts | 322° |
| 2026-05-07 20:41 | 50.31006 | 20.00270 | 39999 ft | 500 kts | 322° |
| 2026-05-07 20:41 | 50.36760 | 19.94151 | 39998 ft | 500 kts | 322° |
| 2026-05-07 20:42 | 50.42519 | 19.88008 | 39992 ft | 500 kts | 322° |
| 2026-05-07 20:42 | 50.48234 | 19.81893 | 39994 ft | 500 kts | 322° |
| 2026-05-07 20:43 | 50.53989 | 19.75711 | 39997 ft | 499 kts | 322° |
| 2026-05-07 20:43 | 50.59698 | 19.69565 | 40001 ft | 499 kts | 322° |
| 2026-05-07 20:44 | 50.65436 | 19.63375 | 40001 ft | 499 kts | 322° |
| 2026-05-07 20:44 | 50.71159 | 19.57179 | 40002 ft | 498 kts | 322° |
| 2026-05-07 20:45 | 50.76845 | 19.51004 | 40011 ft | 498 kts | 322° |
| 2026-05-07 20:45 | 50.82554 | 19.44784 | 40007 ft | 498 kts | 322° |
| 2026-05-07 20:46 | 50.88261 | 19.38548 | 40012 ft | 497 kts | 322° |
| 2026-05-07 20:46 | 50.93946 | 19.32315 | 40016 ft | 497 kts | 322° |
| 2026-05-07 20:47 | 50.99602 | 19.26097 | 40018 ft | 496 kts | 322° |
| 2026-05-07 20:47 | 51.05276 | 19.19841 | 40026 ft | 496 kts | 322° |
| 2026-05-07 20:48 | 51.10954 | 19.13561 | 40030 ft | 496 kts | 322° |
| 2026-05-07 20:48 | 51.16615 | 19.07282 | 40035 ft | 496 kts | 322° |
| 2026-05-07 20:49 | 51.22284 | 19.00973 | 40028 ft | 496 kts | 322° |
| 2026-05-07 20:49 | 51.27909 | 18.94694 | 40039 ft | 496 kts | 322° |
| 2026-05-07 20:50 | 51.33600 | 18.88322 | 40039 ft | 497 kts | 322° |
| 2026-05-07 20:50 | 51.39224 | 18.82006 | 40042 ft | 497 kts | 322° |
| 2026-05-07 20:51 | 51.44891 | 18.75622 | 40043 ft | 497 kts | 322° |
| 2026-05-07 20:51 | 51.50551 | 18.69228 | 40047 ft | 497 kts | 322° |
| 2026-05-07 20:52 | 51.56213 | 18.62810 | 40055 ft | 498 kts | 322° |
| 2026-05-07 20:52 | 51.61834 | 18.56419 | 40054 ft | 498 kts | 322° |
| 2026-05-07 20:53 | 51.67496 | 18.49961 | 40054 ft | 498 kts | 322° |
| 2026-05-07 20:53 | 51.73155 | 18.43486 | 40061 ft | 498 kts | 322° |
| 2026-05-07 20:54 | 51.78813 | 18.36992 | 40061 ft | 499 kts | 322° |
| 2026-05-07 20:54 | 51.84427 | 18.30528 | 40062 ft | 499 kts | 322° |
| 2026-05-07 20:55 | 51.90083 | 18.23996 | 40065 ft | 499 kts | 322° |
| 2026-05-07 20:55 | 51.94782 | 18.18554 | 40066 ft | 498 kts | 322° |
| 2026-05-07 20:56 | 52.01351 | 18.10920 | 40069 ft | 498 kts | 322° |
| 2026-05-07 20:56 | 52.06070 | 18.05421 | 40074 ft | 498 kts | 322° |
| 2026-05-07 20:57 | 52.11666 | 17.98879 | 40075 ft | 497 kts | 322° |
| 2026-05-07 20:57 | 52.17282 | 17.92293 | 40069 ft | 497 kts | 322° |
| 2026-05-07 20:58 | 52.22904 | 17.85679 | 40076 ft | 497 kts | 322° |
| 2026-05-07 20:58 | 52.28509 | 17.79063 | 40082 ft | 496 kts | 322° |
| 2026-05-07 20:59 | 52.34079 | 17.72467 | 40084 ft | 496 kts | 322° |
| 2026-05-07 20:59 | 52.39671 | 17.65826 | 40075 ft | 496 kts | 322° |
| 2026-05-07 21:00 | 52.45258 | 17.59168 | 40095 ft | 496 kts | 322° |
| 2026-05-07 21:00 | 52.50842 | 17.52494 | 40093 ft | 496 kts | 321° |
| 2026-05-07 21:01 | 52.56396 | 17.45833 | 40083 ft | 496 kts | 321° |
| 2026-05-07 21:01 | 52.61986 | 17.39107 | 40089 ft | 496 kts | 321° |
| 2026-05-07 21:02 | 52.67558 | 17.32381 | 40089 ft | 496 kts | 321° |
| 2026-05-07 21:02 | 52.73092 | 17.25681 | 40094 ft | 496 kts | 321° |
| 2026-05-07 21:03 | 52.78647 | 17.18932 | 40095 ft | 495 kts | 321° |
| 2026-05-07 21:03 | 52.84196 | 17.12167 | 40097 ft | 495 kts | 321° |
| 2026-05-07 21:04 | 52.89712 | 17.05423 | 40097 ft | 495 kts | 321° |
| 2026-05-07 21:04 | 52.95234 | 16.98648 | 40100 ft | 494 kts | 321° |
| 2026-05-07 21:05 | 53.00765 | 16.91842 | 40103 ft | 495 kts | 321° |
| 2026-05-07 21:05 | 53.06299 | 16.85010 | 40102 ft | 495 kts | 321° |
| 2026-05-07 21:06 | 53.11792 | 16.78206 | 40105 ft | 495 kts | 321° |
| 2026-05-07 21:06 | 53.17320 | 16.71334 | 40112 ft | 495 kts | 321° |
| 2026-05-07 21:07 | 53.22846 | 16.64444 | 40110 ft | 495 kts | 321° |
| 2026-05-07 21:07 | 53.28592 | 16.58133 | 40115 ft | 496 kts | 326° |
| 2026-05-07 21:08 | 53.34478 | 16.52040 | 40115 ft | 497 kts | 327° |
| 2026-05-07 21:08 | 53.40384 | 16.46015 | 40118 ft | 497 kts | 327° |
| 2026-05-07 21:09 | 53.46260 | 16.40005 | 40126 ft | 497 kts | 326° |
| 2026-05-07 21:09 | 53.52158 | 16.33935 | 40121 ft | 497 kts | 326° |
| 2026-05-07 21:10 | 53.58063 | 16.27830 | 40129 ft | 497 kts | 326° |
| 2026-05-07 21:10 | 53.63953 | 16.21718 | 40133 ft | 497 kts | 326° |
| 2026-05-07 21:11 | 53.69798 | 16.15633 | 40139 ft | 497 kts | 326° |
| 2026-05-07 21:11 | 53.78624 | 16.06406 | 40137 ft | 496 kts | 326° |
| 2026-05-07 21:12 | 53.84493 | 16.00246 | 40142 ft | 496 kts | 326° |
| 2026-05-07 21:12 | 53.90361 | 15.94066 | 40141 ft | 496 kts | 326° |
| 2026-05-07 21:13 | 53.96195 | 15.87901 | 40145 ft | 496 kts | 326° |
| 2026-05-07 21:13 | 54.02052 | 15.81691 | 40148 ft | 496 kts | 326° |
| 2026-05-07 21:14 | 54.07903 | 15.75467 | 40149 ft | 496 kts | 326° |
| 2026-05-07 21:14 | 54.13765 | 15.69209 | 40154 ft | 496 kts | 326° |
| 2026-05-07 21:15 | 54.19609 | 15.62950 | 40154 ft | 495 kts | 326° |
| 2026-05-07 21:15 | 54.25448 | 15.56675 | 40156 ft | 495 kts | 326° |
| 2026-05-07 21:16 | 54.31247 | 15.50422 | 40161 ft | 495 kts | 326° |
| 2026-05-07 21:16 | 54.37081 | 15.44110 | 40163 ft | 495 kts | 326° |
| 2026-05-07 21:17 | 54.42901 | 15.37791 | 40162 ft | 495 kts | 326° |
| 2026-05-07 21:17 | 54.48690 | 15.31485 | 40165 ft | 495 kts | 326° |
| 2026-05-07 21:18 | 54.54511 | 15.25123 | 40166 ft | 495 kts | 326° |
| 2026-05-07 21:18 | 54.60320 | 15.18751 | 40165 ft | 495 kts | 326° |
| 2026-05-07 21:19 | 54.66126 | 15.12361 | 40169 ft | 494 kts | 326° |
| 2026-05-07 21:19 | 54.71930 | 15.05950 | 40170 ft | 494 kts | 326° |
| 2026-05-07 21:20 | 54.77689 | 14.99569 | 40174 ft | 494 kts | 326° |
| 2026-05-07 21:20 | 54.83621 | 14.93564 | 40178 ft | 495 kts | 332° |
| 2026-05-07 21:21 | 54.89877 | 14.88529 | 40181 ft | 496 kts | 334° |
| 2026-05-07 21:21 | 54.96185 | 14.83689 | 40184 ft | 496 kts | 334° |
| 2026-05-07 21:22 | 55.02500 | 14.78835 | 40181 ft | 495 kts | 332° |
| 2026-05-07 21:22 | 55.05406 | 14.75619 | 40182 ft | 491 kts | 318° |
| 2026-05-07 21:22 | 55.07741 | 14.71326 | 40188 ft | 487 kts | 305° |
| 2026-05-07 21:23 | 55.11240 | 14.61315 | 40187 ft | 485 kts | 296° |
| 2026-05-07 21:23 | 55.14214 | 14.50710 | 40182 ft | 485 kts | 294° |
| 2026-05-07 21:24 | 55.17159 | 14.40083 | 40179 ft | 485 kts | 295° |
| 2026-05-07 21:24 | 55.20170 | 14.29515 | 40176 ft | 485 kts | 295° |
| 2026-05-07 21:25 | 55.23199 | 14.19022 | 40172 ft | 485 kts | 296° |
| 2026-05-07 21:25 | 55.26247 | 14.08447 | 40172 ft | 485 kts | 296° |
| 2026-05-07 21:26 | 55.29281 | 13.97870 | 40174 ft | 484 kts | 295° |
| 2026-05-07 21:26 | 55.32279 | 13.87362 | 40172 ft | 484 kts | 295° |
| 2026-05-07 21:27 | 55.35285 | 13.76774 | 40168 ft | 484 kts | 295° |
| 2026-05-07 21:27 | 55.38279 | 13.66180 | 40165 ft | 484 kts | 295° |
| 2026-05-07 21:28 | 55.41253 | 13.55588 | 39858 ft | 478 kts | 293° |
| 2026-05-07 21:28 | 55.42259 | 13.50032 | 39409 ft | 472 kts | 278° |
| 2026-05-07 21:28 | 55.42394 | 13.44395 | 38974 ft | 466 kts | 263° |
| 2026-05-07 21:29 | 55.41665 | 13.38891 | 38449 ft | 461 kts | 248° |
| 2026-05-07 21:29 | 55.40123 | 13.33976 | 37895 ft | 457 kts | 232° |
| 2026-05-07 21:29 | 55.37919 | 13.30077 | 37335 ft | 445 kts | 216° |
| 2026-05-07 21:29 | 55.35220 | 13.27468 | 36808 ft | 441 kts | 200° |
| 2026-05-07 21:30 | 55.32242 | 13.26323 | 36290 ft | 439 kts | 183° |
| 2026-05-07 21:30 | 55.29210 | 13.26712 | 35785 ft | 435 kts | 166° |
| 2026-05-07 21:30 | 55.26405 | 13.28588 | 35294 ft | 429 kts | 148° |
| 2026-05-07 21:30 | 55.24096 | 13.31700 | 34817 ft | 422 kts | 131° |
| 2026-05-07 21:31 | 55.22323 | 13.35776 | 34359 ft | 420 kts | 121° |
| 2026-05-07 21:31 | 55.20773 | 13.40145 | 33814 ft | 418 kts | 119° |
| 2026-05-07 21:31 | 55.19285 | 13.44501 | 33288 ft | 420 kts | 117° |
| 2026-05-07 21:31 | 55.18198 | 13.49345 | 32757 ft | 439 kts | 101° |
| 2026-05-07 21:32 | 55.17932 | 13.54780 | 32239 ft | 460 kts | 85° |
| 2026-05-07 21:32 | 55.18543 | 13.60291 | 31733 ft | 472 kts | 70° |
| 2026-05-07 21:32 | 55.20004 | 13.65445 | 31209 ft | 476 kts | 56° |
| 2026-05-07 21:32 | 55.22211 | 13.69779 | 30728 ft | 479 kts | 40° |
| 2026-05-07 21:33 | 55.25012 | 13.72964 | 30222 ft | 481 kts | 25° |
| 2026-05-07 21:33 | 55.28191 | 13.74756 | 29648 ft | 484 kts | 11° |
| 2026-05-07 21:33 | 55.31567 | 13.75037 | 29078 ft | 484 kts | 355° |
| 2026-05-07 21:33 | 55.34835 | 13.73776 | 28523 ft | 483 kts | 341° |
| 2026-05-07 21:34 | 55.37810 | 13.71055 | 27983 ft | 479 kts | 326° |
| 2026-05-07 21:34 | 55.40214 | 13.67172 | 27447 ft | 473 kts | 310° |
| 2026-05-07 21:34 | 55.42048 | 13.62397 | 26932 ft | 467 kts | 301° |
| 2026-05-07 21:34 | 55.43624 | 13.57439 | 26416 ft | 460 kts | 299° |
| 2026-05-07 21:35 | 55.45153 | 13.52520 | 25910 ft | 453 kts | 299° |
| 2026-05-07 21:35 | 55.46653 | 13.47672 | 25414 ft | 447 kts | 298° |
| 2026-05-07 21:35 | 55.47801 | 13.42626 | 24924 ft | 441 kts | 284° |
| 2026-05-07 21:35 | 55.48111 | 13.37387 | 24438 ft | 427 kts | 268° |
| 2026-05-07 21:36 | 55.47563 | 13.32367 | 23960 ft | 413 kts | 250° |
| 2026-05-07 21:36 | 55.46217 | 13.27933 | 23333 ft | 408 kts | 233° |
| 2026-05-07 21:36 | 55.44194 | 13.24473 | 22645 ft | 404 kts | 215° |
| 2026-05-07 21:36 | 55.41686 | 13.22293 | 21971 ft | 401 kts | 197° |
| 2026-05-07 21:37 | 55.38947 | 13.21594 | 21312 ft | 397 kts | 179° |
| 2026-05-07 21:37 | 55.36269 | 13.22408 | 20681 ft | 398 kts | 161° |
| 2026-05-07 21:37 | 55.33856 | 13.24643 | 20058 ft | 388 kts | 143° |
| 2026-05-07 21:37 | 55.31998 | 13.28030 | 19435 ft | 384 kts | 125° |
| 2026-05-07 21:38 | 55.30609 | 13.32031 | 18825 ft | 382 kts | 120° |
| 2026-05-07 21:38 | 55.29315 | 13.36089 | 18192 ft | 380 kts | 119° |
| 2026-05-07 21:38 | 55.28039 | 13.40112 | 17514 ft | 371 kts | 119° |
| 2026-05-07 21:38 | 55.26799 | 13.44014 | 16858 ft | 362 kts | 119° |
| 2026-05-07 21:39 | 55.25579 | 13.47846 | 16201 ft | 356 kts | 119° |
| 2026-05-07 21:39 | 55.24389 | 13.51568 | 15558 ft | 352 kts | 119° |
| 2026-05-07 21:39 | 55.23193 | 13.55293 | 14956 ft | 351 kts | 119° |
| 2026-05-07 21:39 | 55.21986 | 13.59041 | 14341 ft | 349 kts | 119° |
| 2026-05-07 21:40 | 55.20808 | 13.62683 | 13706 ft | 340 kts | 119° |
| 2026-05-07 21:40 | 55.19649 | 13.66262 | 13033 ft | 336 kts | 119° |
| 2026-05-07 21:40 | 55.18496 | 13.69810 | 12379 ft | 333 kts | 119° |
| 2026-05-07 21:40 | 55.17431 | 13.73242 | 11750 ft | 329 kts | 114° |
| 2026-05-07 21:41 | 55.16763 | 13.77030 | 11124 ft | 322 kts | 102° |
| 2026-05-07 21:41 | 55.16481 | 13.80788 | 10552 ft | 308 kts | 91° |
| 2026-05-07 21:41 | 55.16746 | 13.84403 | 10059 ft | 294 kts | 74° |
| 2026-05-07 21:41 | 55.17622 | 13.87546 | 9515 ft | 283 kts | 54° |
| 2026-05-07 21:42 | 55.19017 | 13.89917 | 8985 ft | 278 kts | 35° |
| 2026-05-07 21:42 | 55.20772 | 13.91315 | 8456 ft | 277 kts | 16° |
| 2026-05-07 21:42 | 55.22689 | 13.91599 | 8203 ft | 278 kts | 357° |
| 2026-05-07 21:42 | 55.24554 | 13.90806 | 8173 ft | 281 kts | 339° |
| 2026-05-07 21:43 | 55.26219 | 13.89011 | 8174 ft | 285 kts | 321° |
| 2026-05-07 21:43 | 55.27558 | 13.86446 | 8170 ft | 286 kts | 307° |
| 2026-05-07 21:43 | 55.28604 | 13.83461 | 8055 ft | 287 kts | 301° |
| 2026-05-07 21:43 | 55.29233 | 13.81430 | 8000 ft | 285 kts | 300° |
| 2026-05-07 21:44 | 55.30173 | 13.78368 | 7982 ft | 285 kts | 300° |
| 2026-05-07 21:44 | 55.31121 | 13.75305 | 7983 ft | 285 kts | 300° |
| 2026-05-07 21:44 | 55.32076 | 13.72246 | 7983 ft | 285 kts | 300° |
| 2026-05-07 21:44 | 55.33032 | 13.69198 | 7986 ft | 285 kts | 300° |
| 2026-05-07 21:45 | 55.33989 | 13.66151 | 7984 ft | 285 kts | 300° |
| 2026-05-07 21:45 | 55.34945 | 13.63107 | 7987 ft | 284 kts | 300° |
| 2026-05-07 21:45 | 55.35888 | 13.60103 | 7988 ft | 284 kts | 300° |
| 2026-05-07 21:45 | 55.36857 | 13.57018 | 7990 ft | 284 kts | 300° |
| 2026-05-07 21:46 | 55.37810 | 13.53976 | 7988 ft | 284 kts | 300° |
| 2026-05-07 21:46 | 55.38752 | 13.50969 | 7990 ft | 284 kts | 300° |
| 2026-05-07 21:46 | 55.39705 | 13.47922 | 7911 ft | 284 kts | 300° |
| 2026-05-07 21:46 | 55.40654 | 13.44882 | 7652 ft | 282 kts | 300° |
| 2026-05-07 21:47 | 55.41598 | 13.41847 | 7422 ft | 282 kts | 299° |
| 2026-05-07 21:47 | 55.42375 | 13.38692 | 7168 ft | 280 kts | 287° |
| 2026-05-07 21:47 | 55.42693 | 13.35316 | 7012 ft | 280 kts | 276° |
| 2026-05-07 21:47 | 55.42822 | 13.31884 | 6897 ft | 281 kts | 273° |
| 2026-05-07 21:48 | 55.42903 | 13.28448 | 6763 ft | 280 kts | 272° |
| 2026-05-07 21:48 | 55.42967 | 13.25067 | 6651 ft | 279 kts | 272° |
| 2026-05-07 21:48 | 55.43026 | 13.21660 | 6510 ft | 278 kts | 272° |
| 2026-05-07 21:48 | 55.43084 | 13.18262 | 6374 ft | 277 kts | 272° |
| 2026-05-07 21:49 | 55.43134 | 13.14876 | 6223 ft | 277 kts | 272° |
| 2026-05-07 21:49 | 55.43178 | 13.11494 | 5977 ft | 275 kts | 271° |
| 2026-05-07 21:49 | 55.43222 | 13.08140 | 5716 ft | 273 kts | 272° |
| 2026-05-07 21:49 | 55.43275 | 13.04810 | 5444 ft | 271 kts | 272° |
| 2026-05-07 21:50 | 55.43324 | 13.01485 | 5194 ft | 270 kts | 271° |
| 2026-05-07 21:50 | 55.43361 | 12.98244 | 5018 ft | 255 kts | 271° |
| 2026-05-07 21:50 | 55.43384 | 12.95249 | 4966 ft | 238 kts | 270° |
| 2026-05-07 21:50 | 55.43405 | 12.92384 | 4981 ft | 238 kts | 271° |
| 2026-05-07 21:51 | 55.43433 | 12.89466 | 4980 ft | 237 kts | 271° |
| 2026-05-07 21:51 | 55.43464 | 12.86568 | 4988 ft | 237 kts | 271° |
| 2026-05-07 21:51 | 55.43497 | 12.83672 | 4989 ft | 236 kts | 271° |
| 2026-05-07 21:51 | 55.43531 | 12.80835 | 4976 ft | 225 kts | 271° |
| 2026-05-07 21:52 | 55.43563 | 12.78133 | 4860 ft | 216 kts | 271° |
| 2026-05-07 21:52 | 55.43593 | 12.75539 | 4725 ft | 208 kts | 271° |
| 2026-05-07 21:52 | 55.43623 | 12.73017 | 4564 ft | 203 kts | 271° |
| 2026-05-07 21:52 | 55.43651 | 12.70527 | 4419 ft | 203 kts | 272° |
| 2026-05-07 21:53 | 55.43679 | 12.68050 | 4301 ft | 202 kts | 272° |
| 2026-05-07 21:53 | 55.43707 | 12.65578 | 4170 ft | 201 kts | 272° |
| 2026-05-07 21:53 | 55.43733 | 12.63146 | 4039 ft | 201 kts | 272° |
| 2026-05-07 21:53 | 55.43734 | 12.60690 | 3912 ft | 201 kts | 268° |
| 2026-05-07 21:54 | 55.43444 | 12.58288 | 3769 ft | 202 kts | 249° |
| 2026-05-07 21:54 | 55.42677 | 12.56216 | 3654 ft | 203 kts | 228° |
| 2026-05-07 21:54 | 55.41648 | 12.54516 | 3523 ft | 203 kts | 223° |
| 2026-05-07 21:54 | 55.40603 | 12.52851 | 3390 ft | 200 kts | 229° |
| 2026-05-07 21:55 | 55.39912 | 12.50832 | 3238 ft | 191 kts | 254° |
| 2026-05-07 21:55 | 55.39853 | 12.48549 | 3108 ft | 186 kts | 287° |
| 2026-05-07 21:55 | 55.40523 | 12.46676 | 3025 ft | 182 kts | 320° |
| 2026-05-07 21:55 | 55.41605 | 12.45540 | 3016 ft | 181 kts | 339° |
| 2026-05-07 21:56 | 55.42784 | 12.44910 | 3026 ft | 179 kts | 345° |
| 2026-05-07 21:56 | 55.43994 | 12.44370 | 3007 ft | 180 kts | 346° |
| 2026-05-07 21:56 | 55.45211 | 12.43833 | 3005 ft | 181 kts | 346° |
| 2026-05-07 21:56 | 55.46432 | 12.43308 | 2999 ft | 181 kts | 348° |
| 2026-05-07 21:57 | 55.47674 | 12.43400 | 3013 ft | 181 kts | 16° |
| 2026-05-07 21:57 | 55.48819 | 12.44321 | 2856 ft | 182 kts | 34° |
| 2026-05-07 21:57 | 55.49766 | 12.45778 | 2584 ft | 177 kts | 42° |
| 2026-05-07 21:57 | 55.50668 | 12.47199 | 2332 ft | 171 kts | 40° |
| 2026-05-07 21:58 | 55.51530 | 12.48501 | 2100 ft | 171 kts | 39° |
| 2026-05-07 21:58 | 55.52429 | 12.49873 | 1863 ft | 170 kts | 39° |
| 2026-05-07 21:58 | 55.53021 | 12.50784 | 1708 ft | 170 kts | 40° |
| 2026-05-07 21:58 | 55.53564 | 12.51617 | 1570 ft | 173 kts | 39° |
| 2026-05-07 21:59 | 55.54464 | 12.53002 | 1325 ft | 167 kts | 40° |
| 2026-05-07 21:59 | 55.55302 | 12.54301 | 1107 ft | 154 kts | 40° |
| 2026-05-07 21:59 | 55.56085 | 12.55509 | 876 ft | 143 kts | 40° |
| 2026-05-07 21:59 | 55.56810 | 12.56629 | 693 ft | 137 kts | 40° |
| 2026-05-07 22:00 | 55.57402 | 12.57543 | 540 ft | 135 kts | 40° |
| 2026-05-07 22:00 | 55.58119 | 12.58650 | 371 ft | 135 kts | 40° |
| 2026-05-07 22:00 | 55.58824 | 12.59746 | 163 ft | 134 kts | 40° |
| 2026-05-07 22:00 | 55.59510 | 12.60798 | 30 ft | 123 kts | 40° |
| 2026-05-07 22:01 | 55.59969 | 12.61508 | 28 ft | 45 kts | 41° |
| 2026-05-07 22:01 | 55.60046 | 12.61625 | 29 ft | 6 kts | 41° |
| 2026-05-07 22:01 | 55.60097 | 12.61694 | 29 ft | 7 kts | 21° |
| 2026-05-07 22:01 | 55.60170 | 12.61720 | 31 ft | 14 kts | 11° |
| 2026-05-07 22:02 | 55.60260 | 12.61752 | 30 ft | 13 kts | 11° |
| 2026-05-07 22:02 | 55.60343 | 12.61837 | 30 ft | 16 kts | 40° |
| 2026-05-07 22:02 | 55.60440 | 12.61984 | 28 ft | 21 kts | 41° |
| 2026-05-07 22:02 | 55.60552 | 12.62156 | 30 ft | 22 kts | 42° |
| 2026-05-07 22:03 | 55.60663 | 12.62328 | 34 ft | 21 kts | 39° |
| 2026-05-07 22:03 | 55.60803 | 12.62431 | 32 ft | 22 kts | 28° |
| 2026-05-07 22:03 | 55.60923 | 12.62604 | 28 ft | 23 kts | 41° |
| 2026-05-07 22:03 | 55.61051 | 12.62802 | 28 ft | 26 kts | 41° |
| 2026-05-07 22:04 | 55.61173 | 12.62990 | 32 ft | 22 kts | 41° |
| 2026-05-07 22:04 | 55.61291 | 12.63173 | 34 ft | 23 kts | 41° |
| 2026-05-07 22:04 | 55.61420 | 12.63374 | 32 ft | 26 kts | 41° |
| 2026-05-07 22:04 | 55.61555 | 12.63584 | 29 ft | 27 kts | 41° |
| 2026-05-07 22:05 | 55.61696 | 12.63803 | 31 ft | 20 kts | 41° |
| 2026-05-07 22:05 | 55.61801 | 12.63965 | 33 ft | 21 kts | 40° |